Malta Bend, Missouri
Current Conditions -  °F | °C
As of 3:58 AM on Sunday 21 Dec 2014 (Local Time) from KSZL Reporting Station
Overcast Overcast  
Wind Chill: 34°   Ceiling: 2100
Heat Index: 41°   Visibility: 10mi
Dew Point: 35°   Wind: 10mph
Humidity: 82%   Direction: 210°SSW
Pressure: 30.12"   Gusts: NA
Location:  39.19°N, 93.36°W
Report Text: KSZL 210958Z AUTO 21009KT 10SM OVC021 05/02 A3012 RMK AO2 SLP207 T00480019 $
Loading
Personal Weather Stations






























Interactive Weather Map New forecast layout! Learn more

10-Day Weather Forecast

Advertisements
Track Severe Weather on mobile